sensor_id;sensor_type;location;lat;lon;timestamp;pressure;altitude;pressure_sealevel;temperature;humidity
28935;BME280;16044;52.726;-2.108;2023-07-13T00:00:27;100330.28;;;14.42;83.70
28935;BME280;16044;52.726;-2.108;2023-07-13T00:02:59;100337.81;;;14.40;83.89
28935;BME280;16044;52.726;-2.108;2023-07-13T00:05:32;100326.06;;;14.33;84.33
28935;BME280;16044;52.726;-2.108;2023-07-13T00:08:03;100326.28;;;14.31;84.22
28935;BME280;16044;52.726;-2.108;2023-07-13T00:10:39;100331.31;;;14.28;84.64
28935;BME280;16044;52.726;-2.108;2023-07-13T00:13:13;100317.66;;;14.28;84.30
28935;BME280;16044;52.726;-2.108;2023-07-13T00:15:44;100325.22;;;14.26;85.37
28935;BME280;16044;52.726;-2.108;2023-07-13T00:18:14;100331.09;;;14.29;85.28
28935;BME280;16044;52.726;-2.108;2023-07-13T00:20:48;100321.25;;;14.35;85.10
28935;BME280;16044;52.726;-2.108;2023-07-13T00:23:18;100332.38;;;14.40;85.10
28935;BME280;16044;52.726;-2.108;2023-07-13T00:25:48;100332.59;;;14.45;85.28
28935;BME280;16044;52.726;-2.108;2023-07-13T00:28:19;100327.78;;;14.47;85.47
28935;BME280;16044;52.726;-2.108;2023-07-13T00:30:49;100337.84;;;14.53;85.91
28935;BME280;16044;52.726;-2.108;2023-07-13T00:33:20;100333.47;;;14.52;85.98
28935;BME280;16044;52.726;-2.108;2023-07-13T00:35:54;100334.72;;;14.56;85.84
28935;BME280;16044;52.726;-2.108;2023-07-13T00:38:24;100329.28;;;14.56;86.38
28935;BME280;16044;52.726;-2.108;2023-07-13T00:40:55;100325.94;;;14.61;85.85
28935;BME280;16044;52.726;-2.108;2023-07-13T00:43:27;100329.72;;;14.60;86.32
28935;BME280;16044;52.726;-2.108;2023-07-13T00:46:20;100326.38;;;14.58;86.49
28935;BME280;16044;52.726;-2.108;2023-07-13T00:48:55;100325.13;;;14.60;86.13
28935;BME280;16044;52.726;-2.108;2023-07-13T00:51:35;100324.69;;;14.57;87.00
28935;BME280;16044;52.726;-2.108;2023-07-13T00:54:10;100331.00;;;14.57;86.64
28935;BME280;16044;52.726;-2.108;2023-07-13T00:56:45;100324.28;;;14.60;86.78
28935;BME280;16044;52.726;-2.108;2023-07-13T00:59:19;100329.53;;;14.61;87.27
28935;BME280;16044;52.726;-2.108;2023-07-13T01:01:51;100327.63;;;14.62;87.31
28935;BME280;16044;52.726;-2.108;2023-07-13T01:04:23;100328.06;;;14.66;87.56
28935;BME280;16044;52.726;-2.108;2023-07-13T01:06:57;100327.22;;;14.65;88.24
28935;BME280;16044;52.726;-2.108;2023-07-13T01:09:28;100326.81;;;14.68;89.74
28935;BME280;16044;52.726;-2.108;2023-07-13T01:11:58;100320.50;;;14.74;89.19
28935;BME280;16044;52.726;-2.108;2023-07-13T01:14:29;100328.47;;;14.76;89.78
28935;BME280;16044;52.726;-2.108;2023-07-13T01:16:59;100323.66;;;14.78;91.65
28935;BME280;16044;52.726;-2.108;2023-07-13T01:19:35;100316.97;;;14.80;91.38
28935;BME280;16044;52.726;-2.108;2023-07-13T01:22:11;100327.25;;;14.85;91.98
28935;BME280;16044;52.726;-2.108;2023-07-13T01:24:45;100322.41;;;14.80;93.05
28935;BME280;16044;52.726;-2.108;2023-07-13T01:27:20;100324.53;;;14.78;93.41
28935;BME280;16044;52.726;-2.108;2023-07-13T01:29:53;100327.00;;;14.80;93.27
28935;BME280;16044;52.726;-2.108;2023-07-13T01:32:31;100313.81;;;14.77;93.49
28935;BME280;16044;52.726;-2.108;2023-07-13T01:35:01;100321.16;;;14.76;93.09
28935;BME280;16044;52.726;-2.108;2023-07-13T01:37:34;100325.13;;;14.74;93.20
28935;BME280;16044;52.726;-2.108;2023-07-13T01:40:06;100319.66;;;14.74;92.85
28935;BME280;16044;52.726;-2.108;2023-07-13T01:42:37;100319.25;;;14.70;92.99
28935;BME280;16044;52.726;-2.108;2023-07-13T01:45:09;100316.31;;;14.72;92.82
28935;BME280;16044;52.726;-2.108;2023-07-13T01:47:39;100318.81;;;14.67;93.30
28935;BME280;16044;52.726;-2.108;2023-07-13T01:50:10;100318.00;;;14.66;93.51
28935;BME280;16044;52.726;-2.108;2023-07-13T01:52:43;100324.06;;;14.61;94.04
28935;BME280;16044;52.726;-2.108;2023-07-13T01:55:13;100320.09;;;14.57;94.56
28935;BME280;16044;52.726;-2.108;2023-07-13T01:57:43;100320.50;;;14.61;94.08
28935;BME280;16044;52.726;-2.108;2023-07-13T02:00:15;100321.34;;;14.61;94.26
28935;BME280;16044;52.726;-2.108;2023-07-13T02:02:45;100334.72;;;14.56;94.48
28935;BME280;16044;52.726;-2.108;2023-07-13T02:05:17;100327.56;;;14.55;94.90
28935;BME280;16044;52.726;-2.108;2023-07-13T02:07:50;100322.81;;;14.57;94.69
28935;BME280;16044;52.726;-2.108;2023-07-13T02:10:20;100321.75;;;14.58;94.65
28935;BME280;16044;52.726;-2.108;2023-07-13T02:12:51;100320.50;;;14.61;94.98
28935;BME280;16044;52.726;-2.108;2023-07-13T02:15:22;100325.91;;;14.54;95.93
28935;BME280;16044;52.726;-2.108;2023-07-13T02:17:52;100311.22;;;14.55;95.34
28935;BME280;16044;52.726;-2.108;2023-07-13T02:20:24;100316.28;;;14.58;95.15
28935;BME280;16044;52.726;-2.108;2023-07-13T02:22:57;100325.13;;;14.60;95.65
28935;BME280;16044;52.726;-2.108;2023-07-13T02:25:27;100319.22;;;14.57;95.82
28935;BME280;16044;52.726;-2.108;2023-07-13T02:27:57;100321.09;;;14.56;96.01
28935;BME280;16044;52.726;-2.108;2023-07-13T02:30:28;100323.66;;;14.58;95.73
28935;BME280;16044;52.726;-2.108;2023-07-13T02:32:59;100323.00;;;14.62;95.53
28935;BME280;16044;52.726;-2.108;2023-07-13T02:35:29;100324.47;;;14.58;96.31
28935;BME280;16044;52.726;-2.108;2023-07-13T02:38:02;100321.75;;;14.58;96.00
28935;BME280;16044;52.726;-2.108;2023-07-13T02:40:33;100325.75;;;14.62;95.48
28935;BME280;16044;52.726;-2.108;2023-07-13T02:43:03;100324.72;;;14.64;95.72
28935;BME280;16044;52.726;-2.108;2023-07-13T02:45:33;100315.91;;;14.61;95.95
28935;BME280;16044;52.726;-2.108;2023-07-13T02:48:04;100311.06;;;14.64;95.70
28935;BME280;16044;52.726;-2.108;2023-07-13T02:50:35;100312.53;;;14.59;96.28
28935;BME280;16044;52.726;-2.108;2023-07-13T02:53:08;100308.94;;;14.59;95.64
28935;BME280;16044;52.726;-2.108;2023-07-13T02:55:38;100312.06;;;14.56;96.07
28935;BME280;16044;52.726;-2.108;2023-07-13T02:58:14;100313.31;;;14.53;95.70
28935;BME280;16044;52.726;-2.108;2023-07-13T03:00:46;100311.22;;;14.49;95.69
28935;BME280;16044;52.726;-2.108;2023-07-13T03:03:17;100317.94;;;14.46;95.42
28935;BME280;16044;52.726;-2.108;2023-07-13T03:05:48;100306.59;;;14.42;95.15
28935;BME280;16044;52.726;-2.108;2023-07-13T03:08:20;100302.19;;;14.35;95.94
28935;BME280;16044;52.726;-2.108;2023-07-13T03:10:59;100307.41;;;14.30;96.19
28935;BME280;16044;52.726;-2.108;2023-07-13T03:13:29;100307.41;;;14.30;96.15
28935;BME280;16044;52.726;-2.108;2023-07-13T03:16:00;100311.16;;;14.29;95.80
28935;BME280;16044;52.726;-2.108;2023-07-13T03:18:31;100302.34;;;14.27;96.69
28935;BME280;16044;52.726;-2.108;2023-07-13T03:21:01;100304.69;;;14.30;96.40
28935;BME280;16044;52.726;-2.108;2023-07-13T03:23:34;100305.72;;;14.29;96.18
28935;BME280;16044;52.726;-2.108;2023-07-13T03:26:07;100302.97;;;14.29;96.60
28935;BME280;16044;52.726;-2.108;2023-07-13T03:28:41;100304.88;;;14.28;96.58
28935;BME280;16044;52.726;-2.108;2023-07-13T03:31:14;100314.94;;;14.28;96.45
28935;BME280;16044;52.726;-2.108;2023-07-13T03:33:47;100322.50;;;14.26;97.17
28935;BME280;16044;52.726;-2.108;2023-07-13T03:36:20;100326.25;;;14.24;96.90
28935;BME280;16044;52.726;-2.108;2023-07-13T03:38:55;100321.44;;;14.27;96.75
28935;BME280;16044;52.726;-2.108;2023-07-13T03:41:27;100314.94;;;14.28;96.81
28935;BME280;16044;52.726;-2.108;2023-07-13T03:43:58;100319.97;;;14.31;96.91
28935;BME280;16044;52.726;-2.108;2023-07-13T03:46:29;100317.03;;;14.32;97.30
28935;BME280;16044;52.726;-2.108;2023-07-13T03:49:01;100320.19;;;14.36;96.98
28935;BME280;16044;52.726;-2.108;2023-07-13T03:51:31;100331.75;;;14.38;96.77
28935;BME280;16044;52.726;-2.108;2023-07-13T03:54:04;100331.53;;;14.39;96.88
28935;BME280;16044;52.726;-2.108;2023-07-13T03:56:35;100320.19;;;14.36;97.28
28935;BME280;16044;52.726;-2.108;2023-07-13T03:59:05;100325.84;;;14.34;97.09
28935;BME280;16044;52.726;-2.108;2023-07-13T04:01:36;100327.13;;;14.32;96.93
28935;BME280;16044;52.726;-2.108;2023-07-13T04:04:06;100337.59;;;14.28;97.32
28935;BME280;16044;52.726;-2.108;2023-07-13T04:06:36;100326.25;;;14.24;97.54
28935;BME280;16044;52.726;-2.108;2023-07-13T04:09:10;100328.34;;;14.22;97.66
28935;BME280;16044;52.726;-2.108;2023-07-13T04:11:40;100329.59;;;14.20;97.84
28935;BME280;16044;52.726;-2.108;2023-07-13T04:14:11;100333.34;;;14.19;98.04
28935;BME280;16044;52.726;-2.108;2023-07-13T04:16:41;100336.72;;;14.21;98.16
28935;BME280;16044;52.726;-2.108;2023-07-13T04:19:13;100339.03;;;14.24;98.32
28935;BME280;16044;52.726;-2.108;2023-07-13T04:21:43;100343.88;;;14.29;98.35
28935;BME280;16044;52.726;-2.108;2023-07-13T04:24:16;100347.22;;;14.31;98.54
28935;BME280;16044;52.726;-2.108;2023-07-13T04:26:50;100342.22;;;14.34;99.03
28935;BME280;16044;52.726;-2.108;2023-07-13T04:29:20;100343.47;;;14.38;99.26
28935;BME280;16044;52.726;-2.108;2023-07-13T04:31:50;100357.56;;;14.42;98.94
28935;BME280;16044;52.726;-2.108;2023-07-13T04:34:21;100348.78;;;14.47;98.55
28935;BME280;16044;52.726;-2.108;2023-07-13T04:36:51;100354.66;;;14.50;98.61
28935;BME280;16044;52.726;-2.108;2023-07-13T04:39:24;100356.94;;;14.53;98.76
28935;BME280;16044;52.726;-2.108;2023-07-13T04:41:54;100365.41;;;14.58;98.51
28935;BME280;16044;52.726;-2.108;2023-07-13T04:44:25;100370.19;;;14.56;99.19
28935;BME280;16044;52.726;-2.108;2023-07-13T04:46:55;100362.91;;;14.64;98.86
28935;BME280;16044;52.726;-2.108;2023-07-13T04:49:25;100367.28;;;14.65;99.32
28935;BME280;16044;52.726;-2.108;2023-07-13T04:51:56;100366.69;;;14.69;99.17
28935;BME280;16044;52.726;-2.108;2023-07-13T04:54:29;100367.31;;;14.71;99.07
28935;BME280;16044;52.726;-2.108;2023-07-13T04:56:59;100363.97;;;14.76;99.00
28935;BME280;16044;52.726;-2.108;2023-07-13T04:59:30;100358.72;;;14.81;98.80
28935;BME280;16044;52.726;-2.108;2023-07-13T05:02:00;100366.50;;;14.84;98.82
28935;BME280;16044;52.726;-2.108;2023-07-13T05:04:31;100370.69;;;14.87;98.84
28935;BME280;16044;52.726;-2.108;2023-07-13T05:07:02;100375.75;;;14.90;98.84
28935;BME280;16044;52.726;-2.108;2023-07-13T05:09:36;100373.66;;;14.92;98.71
28935;BME280;16044;52.726;-2.108;2023-07-13T05:12:08;100377.44;;;14.97;98.83
28935;BME280;16044;52.726;-2.108;2023-07-13T05:14:39;100374.72;;;14.97;99.30
28935;BME280;16044;52.726;-2.108;2023-07-13T05:17:09;100386.03;;;15.08;98.67
28935;BME280;16044;52.726;-2.108;2023-07-13T05:19:39;100391.69;;;15.06;99.48
28935;BME280;16044;52.726;-2.108;2023-07-13T05:22:10;100385.22;;;15.07;99.29
28935;BME280;16044;52.726;-2.108;2023-07-13T05:24:43;100391.09;;;15.11;99.29
28935;BME280;16044;52.726;-2.108;2023-07-13T05:27:13;100383.53;;;15.13;99.59
28935;BME280;16044;52.726;-2.108;2023-07-13T05:29:43;100392.97;;;15.17;99.24
28935;BME280;16044;52.726;-2.108;2023-07-13T05:32:14;100403.69;;;15.25;98.90
28935;BME280;16044;52.726;-2.108;2023-07-13T05:34:44;100400.56;;;15.28;99.11
28935;BME280;16044;52.726;-2.108;2023-07-13T05:37:14;100401.81;;;15.32;98.90
28935;BME280;16044;52.726;-2.108;2023-07-13T05:39:47;100408.31;;;15.38;98.74
28935;BME280;16044;52.726;-2.108;2023-07-13T05:42:18;100408.13;;;15.39;98.78
28935;BME280;16044;52.726;-2.108;2023-07-13T05:44:48;100402.00;;;15.44;98.62
28935;BME280;16044;52.726;-2.108;2023-07-13T05:47:19;100410.84;;;15.53;98.23
28935;BME280;16044;52.726;-2.108;2023-07-13T05:49:49;100413.78;;;15.58;98.60
28935;BME280;16044;52.726;-2.108;2023-07-13T05:52:19;100412.06;;;15.70;98.09
28935;BME280;16044;52.726;-2.108;2023-07-13T05:54:52;100418.41;;;15.84;97.90
28935;BME280;16044;52.726;-2.108;2023-07-13T05:57:23;100421.25;;;16.23;98.58
28935;BME280;16044;52.726;-2.108;2023-07-13T05:59:53;100423.91;;;16.81;97.54
28935;BME280;16044;52.726;-2.108;2023-07-13T06:02:23;100423.47;;;17.48;96.48
28935;BME280;16044;52.726;-2.108;2023-07-13T06:04:54;100426.22;;;18.17;93.82
28935;BME280;16044;52.726;-2.108;2023-07-13T06:07:24;100427.03;;;18.84;91.08
28935;BME280;16044;52.726;-2.108;2023-07-13T06:09:57;100424.47;;;19.43;87.84
28935;BME280;16044;52.726;-2.108;2023-07-13T06:12:28;100432.28;;;19.82;85.09
28935;BME280;16044;52.726;-2.108;2023-07-13T06:14:59;100428.56;;;19.88;81.18
28935;BME280;16044;52.726;-2.108;2023-07-13T06:17:30;100439.56;;;19.88;79.48
28935;BME280;16044;52.726;-2.108;2023-07-13T06:20:00;100438.75;;;19.76;77.78
28935;BME280;16044;52.726;-2.108;2023-07-13T06:22:31;100435.47;;;19.55;75.68
28935;BME280;16044;52.726;-2.108;2023-07-13T06:25:05;100443.41;;;19.75;76.57
28935;BME280;16044;52.726;-2.108;2023-07-13T06:27:36;100440.19;;;20.02;75.22
28935;BME280;16044;52.726;-2.108;2023-07-13T06:30:08;100443.25;;;20.29;72.78
28935;BME280;16044;52.726;-2.108;2023-07-13T06:32:39;100451.19;;;20.54;73.23
28935;BME280;16044;52.726;-2.108;2023-07-13T06:35:09;100440.69;;;20.51;72.84
28935;BME280;16044;52.726;-2.108;2023-07-13T06:37:40;100441.28;;;20.53;71.91
28935;BME280;16044;52.726;-2.108;2023-07-13T06:40:13;100449.31;;;20.43;71.70
28935;BME280;16044;52.726;-2.108;2023-07-13T06:42:44;100445.66;;;20.14;71.97
28935;BME280;16044;52.726;-2.108;2023-07-13T06:45:14;100441.47;;;20.11;71.81
28935;BME280;16044;52.726;-2.108;2023-07-13T06:47:45;100441.84;;;19.91;72.71
28935;BME280;16044;52.726;-2.108;2023-07-13T06:50:16;100444.47;;;19.86;72.55
28935;BME280;16044;52.726;-2.108;2023-07-13T06:52:47;100450.94;;;19.80;72.59
28935;BME280;16044;52.726;-2.108;2023-07-13T06:55:20;100447.06;;;19.57;72.50
28935;BME280;16044;52.726;-2.108;2023-07-13T06:57:50;100450.41;;;19.59;72.13
28935;BME280;16044;52.726;-2.108;2023-07-13T07:00:21;100462.47;;;19.58;72.93
28935;BME280;16044;52.726;-2.108;2023-07-13T07:02:51;100460.09;;;19.62;73.64
28935;BME280;16044;52.726;-2.108;2023-07-13T07:05:22;100462.06;;;19.73;73.41
28935;BME280;16044;52.726;-2.108;2023-07-13T07:07:55;100458.84;;;19.76;73.53
28935;BME280;16044;52.726;-2.108;2023-07-13T07:10:29;100465.91;;;19.84;73.42
28935;BME280;16044;52.726;-2.108;2023-07-13T07:13:01;100464.81;;;20.32;73.11
28935;BME280;16044;52.726;-2.108;2023-07-13T07:15:31;100457.88;;;20.58;71.57
28935;BME280;16044;52.726;-2.108;2023-07-13T07:18:02;100462.88;;;20.85;70.72
28935;BME280;16044;52.726;-2.108;2023-07-13T07:20:32;100468.59;;;20.95;69.96
28935;BME280;16044;52.726;-2.108;2023-07-13T07:23:03;100475.09;;;21.35;69.32
28935;BME280;16044;52.726;-2.108;2023-07-13T07:25:36;100477.31;;;21.50;68.29
28935;BME280;16044;52.726;-2.108;2023-07-13T07:28:09;100475.97;;;21.69;66.46
28935;BME280;16044;52.726;-2.108;2023-07-13T07:30:59;100481.25;;;21.88;65.59
28935;BME280;16044;52.726;-2.108;2023-07-13T07:33:32;100474.22;;;21.97;64.97
28935;BME280;16044;52.726;-2.108;2023-07-13T07:36:04;100482.25;;;21.98;65.38
28935;BME280;16044;52.726;-2.108;2023-07-13T07:38:37;100476.97;;;21.97;64.31
28935;BME280;16044;52.726;-2.108;2023-07-13T07:41:10;100482.41;;;22.09;63.97
28935;BME280;16044;52.726;-2.108;2023-07-13T07:43:44;100486.66;;;22.16;62.89
28935;BME280;16044;52.726;-2.108;2023-07-13T07:46:14;100486.91;;;22.15;63.74
28935;BME280;16044;52.726;-2.108;2023-07-13T07:48:44;100484.56;;;22.07;64.42
28935;BME280;16044;52.726;-2.108;2023-07-13T07:51:15;100491.25;;;22.28;63.33
28935;BME280;16044;52.726;-2.108;2023-07-13T07:53:45;100485.19;;;22.48;63.17
28935;BME280;16044;52.726;-2.108;2023-07-13T07:56:18;100487.94;;;22.48;60.77
28935;BME280;16044;52.726;-2.108;2023-07-13T07:58:51;100484.53;;;22.41;60.70
28935;BME280;16044;52.726;-2.108;2023-07-13T08:01:24;100492.25;;;22.38;60.51
28935;BME280;16044;52.726;-2.108;2023-07-13T08:03:57;100496.63;;;22.17;59.46
28935;BME280;16044;52.726;-2.108;2023-07-13T08:06:31;100495.09;;;22.27;58.62
28935;BME280;16044;52.726;-2.108;2023-07-13T08:09:05;100497.19;;;22.36;59.73
28935;BME280;16044;52.726;-2.108;2023-07-13T08:11:38;100497.50;;;22.40;58.89
28935;BME280;16044;52.726;-2.108;2023-07-13T08:14:11;100487.88;;;22.43;58.07
28935;BME280;16044;52.726;-2.108;2023-07-13T08:16:42;100484.91;;;22.49;57.23
28935;BME280;16044;52.726;-2.108;2023-07-13T08:19:13;100482.94;;;22.67;57.48
28935;BME280;16044;52.726;-2.108;2023-07-13T08:21:43;100490.59;;;22.82;56.32
28935;BME280;16044;52.726;-2.108;2023-07-13T08:24:15;100482.81;;;22.78;54.93
28935;BME280;16044;52.726;-2.108;2023-07-13T08:26:48;100486.88;;;22.98;56.16
28935;BME280;16044;52.726;-2.108;2023-07-13T08:29:20;100489.06;;;22.96;55.01
28935;BME280;16044;52.726;-2.108;2023-07-13T08:31:50;100482.03;;;23.05;54.50
28935;BME280;16044;52.726;-2.108;2023-07-13T08:34:21;100483.75;;;23.11;52.64
28935;BME280;16044;52.726;-2.108;2023-07-13T08:36:51;100491.00;;;23.18;51.03
28935;BME280;16044;52.726;-2.108;2023-07-13T08:39:22;100487.84;;;23.31;50.56
28935;BME280;16044;52.726;-2.108;2023-07-13T08:42:03;100491.75;;;23.35;50.90
28935;BME280;16044;52.726;-2.108;2023-07-13T08:44:47;100490.69;;;23.41;50.34
28935;BME280;16044;52.726;-2.108;2023-07-13T08:47:24;100492.38;;;23.42;50.94
28935;BME280;16044;52.726;-2.108;2023-07-13T08:49:56;100486.53;;;23.44;52.50
28935;BME280;16044;52.726;-2.108;2023-07-13T08:52:34;100490.38;;;23.38;51.93
28935;BME280;16044;52.726;-2.108;2023-07-13T08:55:13;100490.09;;;23.39;51.50
28935;BME280;16044;52.726;-2.108;2023-07-13T08:57:52;100484.09;;;23.47;52.10
28935;BME280;16044;52.726;-2.108;2023-07-13T09:00:34;100484.47;;;23.56;53.38
28935;BME280;16044;52.726;-2.108;2023-07-13T09:03:18;100481.56;;;23.73;50.13
28935;BME280;16044;52.726;-2.108;2023-07-13T09:05:53;100476.16;;;23.88;49.72
28935;BME280;16044;52.726;-2.108;2023-07-13T09:08:36;100482.25;;;23.90;48.97
28935;BME280;16044;52.726;-2.108;2023-07-13T09:11:35;100495.69;;;23.77;49.70
28935;BME280;16044;52.726;-2.108;2023-07-13T09:14:41;100487.91;;;23.41;49.24
28935;BME280;16044;52.726;-2.108;2023-07-13T09:17:17;100491.28;;;23.16;50.76
28935;BME280;16044;52.726;-2.108;2023-07-13T09:19:54;100501.44;;;22.88;53.97
28935;BME280;16044;52.726;-2.108;2023-07-13T09:22:32;100498.75;;;22.32;56.59
28935;BME280;16044;52.726;-2.108;2023-07-13T09:25:06;100500.78;;;22.20;57.69
28935;BME280;16044;52.726;-2.108;2023-07-13T09:27:57;100496.19;;;22.09;59.93
28935;BME280;16044;52.726;-2.108;2023-07-13T09:30:38;100499.06;;;21.97;62.39
28935;BME280;16044;52.726;-2.108;2023-07-13T09:33:15;100505.97;;;22.16;60.70
28935;BME280;16044;52.726;-2.108;2023-07-13T09:35:46;100506.88;;;22.22;60.15
28935;BME280;16044;52.726;-2.108;2023-07-13T09:38:18;100504.91;;;22.34;57.57
28935;BME280;16044;52.726;-2.108;2023-07-13T09:40:59;100493.53;;;22.53;56.80
28935;BME280;16044;52.726;-2.108;2023-07-13T09:43:37;100499.78;;;22.65;56.47
28935;BME280;16044;52.726;-2.108;2023-07-13T09:46:20;100495.91;;;22.88;56.70
28935;BME280;16044;52.726;-2.108;2023-07-13T09:48:51;100492.81;;;23.07;55.17
28935;BME280;16044;52.726;-2.108;2023-07-13T09:51:22;100493.31;;;23.26;54.33
28935;BME280;16044;52.726;-2.108;2023-07-13T09:53:53;100491.81;;;23.45;53.07
28935;BME280;16044;52.726;-2.108;2023-07-13T09:56:27;100492.75;;;23.56;51.21
28935;BME280;16044;52.726;-2.108;2023-07-13T09:58:59;100496.66;;;23.60;50.46
28935;BME280;16044;52.726;-2.108;2023-07-13T10:01:36;100506.91;;;23.60;49.22
28935;BME280;16044;52.726;-2.108;2023-07-13T10:04:12;100501.69;;;23.63;49.44
28935;BME280;16044;52.726;-2.108;2023-07-13T10:06:42;100501.19;;;23.71;48.87
28935;BME280;16044;52.726;-2.108;2023-07-13T10:09:17;100500.78;;;23.58;46.93
28935;BME280;16044;52.726;-2.108;2023-07-13T10:11:50;100501.44;;;23.70;47.38
28935;BME280;16044;52.726;-2.108;2023-07-13T10:14:22;100504.78;;;23.72;47.89
28935;BME280;16044;52.726;-2.108;2023-07-13T10:16:58;100505.22;;;23.59;48.66
28935;BME280;16044;52.726;-2.108;2023-07-13T10:19:32;100512.88;;;23.46;49.63
28935;BME280;16044;52.726;-2.108;2023-07-13T10:22:14;100515.63;;;22.97;52.84
28935;BME280;16044;52.726;-2.108;2023-07-13T10:24:51;100516.59;;;22.64;55.38
28935;BME280;16044;52.726;-2.108;2023-07-13T10:27:27;100522.88;;;22.20;57.52
28935;BME280;16044;52.726;-2.108;2023-07-13T10:30:06;100538.97;;;21.89;59.39
28935;BME280;16044;52.726;-2.108;2023-07-13T10:32:46;100535.41;;;21.60;61.18
28935;BME280;16044;52.726;-2.108;2023-07-13T10:35:19;100528.81;;;21.32;63.45
28935;BME280;16044;52.726;-2.108;2023-07-13T10:37:53;100538.72;;;21.16;64.37
28935;BME280;16044;52.726;-2.108;2023-07-13T10:40:31;100532.78;;;20.96;64.93
28935;BME280;16044;52.726;-2.108;2023-07-13T10:43:09;100536.72;;;21.00;65.48
28935;BME280;16044;52.726;-2.108;2023-07-13T10:45:45;100531.13;;;20.95;67.08
28935;BME280;16044;52.726;-2.108;2023-07-13T10:48:20;100526.34;;;21.19;67.79
28935;BME280;16044;52.726;-2.108;2023-07-13T10:50:53;100526.19;;;21.54;67.49
28935;BME280;16044;52.726;-2.108;2023-07-13T10:53:28;100517.81;;;21.78;64.79
28935;BME280;16044;52.726;-2.108;2023-07-13T10:56:01;100506.47;;;21.96;66.92
28935;BME280;16044;52.726;-2.108;2023-07-13T10:58:36;100509.81;;;22.15;62.55
28935;BME280;16044;52.726;-2.108;2023-07-13T11:01:10;100509.50;;;22.29;63.24
28935;BME280;16044;52.726;-2.108;2023-07-13T11:03:50;100512.72;;;22.43;59.69
28935;BME280;16044;52.726;-2.108;2023-07-13T11:06:34;100511.50;;;22.33;60.11
28935;BME280;16044;52.726;-2.108;2023-07-13T11:12:08;100499.63;;;22.55;59.85
28935;BME280;16044;52.726;-2.108;2023-07-13T11:15:02;100503.63;;;22.64;59.67
28935;BME280;16044;52.726;-2.108;2023-07-13T11:17:49;100503.13;;;22.89;58.91
28935;BME280;16044;52.726;-2.108;2023-07-13T11:20:39;100505.41;;;22.97;57.17
28935;BME280;16044;52.726;-2.108;2023-07-13T11:23:20;100497.53;;;23.06;57.38
28935;BME280;16044;52.726;-2.108;2023-07-13T11:25:58;100486.06;;;23.20;55.62
28935;BME280;16044;52.726;-2.108;2023-07-13T11:28:31;100486.47;;;23.33;56.28
28935;BME280;16044;52.726;-2.108;2023-07-13T11:31:13;100483.63;;;23.55;53.81
28935;BME280;16044;52.726;-2.108;2023-07-13T11:33:56;100488.41;;;23.65;52.67
28935;BME280;16044;52.726;-2.108;2023-07-13T11:36:31;100482.47;;;23.79;52.63
28935;BME280;16044;52.726;-2.108;2023-07-13T11:39:17;100473.75;;;24.02;53.61
28935;BME280;16044;52.726;-2.108;2023-07-13T11:41:51;100480.25;;;24.18;53.34
28935;BME280;16044;52.726;-2.108;2023-07-13T11:44:26;100477.81;;;24.32;47.13
28935;BME280;16044;52.726;-2.108;2023-07-13T11:46:59;100478.69;;;24.38;48.68
28935;BME280;16044;52.726;-2.108;2023-07-13T11:49:31;100485.34;;;24.37;50.35
28935;BME280;16044;52.726;-2.108;2023-07-13T11:52:05;100481.66;;;24.26;50.83
28935;BME280;16044;52.726;-2.108;2023-07-13T11:54:46;100469.63;;;24.05;50.76
28935;BME280;16044;52.726;-2.108;2023-07-13T11:57:26;100474.03;;;24.01;50.78
28935;BME280;16044;52.726;-2.108;2023-07-13T11:59:59;100467.47;;;24.17;52.61
28935;BME280;16044;52.726;-2.108;2023-07-13T12:02:35;100472.53;;;24.30;51.75
28935;BME280;16044;52.726;-2.108;2023-07-13T12:05:10;100474.16;;;24.21;52.21
28935;BME280;16044;52.726;-2.108;2023-07-13T12:07:44;100471.06;;;24.18;51.52
28935;BME280;16044;52.726;-2.108;2023-07-13T12:10:20;100474.66;;;24.13;51.59
28935;BME280;16044;52.726;-2.108;2023-07-13T12:12:55;100473.91;;;23.80;50.25
28935;BME280;16044;52.726;-2.108;2023-07-13T12:15:33;100474.84;;;23.64;51.00
28935;BME280;16044;52.726;-2.108;2023-07-13T12:18:11;100481.00;;;23.39;51.30
28935;BME280;16044;52.726;-2.108;2023-07-13T12:20:44;100481.50;;;23.08;51.48
28935;BME280;16044;52.726;-2.108;2023-07-13T12:23:22;100482.91;;;22.89;52.33
28935;BME280;16044;52.726;-2.108;2023-07-13T12:25:55;100480.53;;;22.75;53.41
28935;BME280;16044;52.726;-2.108;2023-07-13T12:28:32;100482.53;;;22.58;54.00
28935;BME280;16044;52.726;-2.108;2023-07-13T12:31:05;100484.28;;;22.42;54.67
28935;BME280;16044;52.726;-2.108;2023-07-13T12:33:39;100489.41;;;22.33;56.37
28935;BME280;16044;52.726;-2.108;2023-07-13T12:36:12;100488.81;;;22.14;59.88
28935;BME280;16044;52.726;-2.108;2023-07-13T12:38:45;100483.63;;;22.18;59.95
28935;BME280;16044;52.726;-2.108;2023-07-13T12:41:16;100484.13;;;22.15;60.94
28935;BME280;16044;52.726;-2.108;2023-07-13T12:43:47;100481.63;;;22.30;60.63
28935;BME280;16044;52.726;-2.108;2023-07-13T12:46:20;100474.47;;;22.51;59.50
28935;BME280;16044;52.726;-2.108;2023-07-13T12:48:53;100470.03;;;22.72;58.44
28935;BME280;16044;52.726;-2.108;2023-07-13T12:51:43;100467.53;;;22.98;55.73
28935;BME280;16044;52.726;-2.108;2023-07-13T12:54:17;100462.75;;;23.15;54.02
28935;BME280;16044;52.726;-2.108;2023-07-13T12:56:48;100460.75;;;23.33;54.09
28935;BME280;16044;52.726;-2.108;2023-07-13T12:59:21;100458.19;;;23.59;52.91
28935;BME280;16044;52.726;-2.108;2023-07-13T13:01:53;100455.41;;;23.59;52.90
28935;BME280;16044;52.726;-2.108;2023-07-13T13:04:24;100458.22;;;23.64;50.61
28935;BME280;16044;52.726;-2.108;2023-07-13T13:07:02;100460.94;;;23.59;50.87
28935;BME280;16044;52.726;-2.108;2023-07-13T13:09:36;100459.19;;;23.47;51.84
28935;BME280;16044;52.726;-2.108;2023-07-13T13:12:07;100457.00;;;23.49;51.28
28935;BME280;16044;52.726;-2.108;2023-07-13T13:14:41;100453.91;;;23.46;50.37